Terminal Aerodrome Forecast
Issued by NWS

Home | Current Version | Previous Version | Text Only | Print | Product List | Glossary On
Versions: 1 2 3 4 5 6 7 8 9 10 11 12 13 14 15 16 17
000
FTUS43 KMQT 220300 AAA
TAFSAW
TAF AMD
KSAW 220336Z 2204/2224 18015G23KT 4SM -SN OVC005
     FM220900 17013KT 4SM -SN OVC010
     FM221900 15011KT P6SM OVC025
      AMD LTD TO CLD VIS AND WIND 2203/2211=

USA.gov is the U.S. government's official web portal to all federal, state and local government web resources and services.